Time;durP1;ratioP1;P1;durP2;ratioP2;P2;SDS_P1;SDS_P2;PMS_P1;PMS_P2;Temp;Humidity;BMP_temperature;BMP_pressure;BME280_temperature;BME280_humidity;BME280_pressure;Samples;Min_cycle;Max_cycle;Signal;HPM_P1;HPM_P2
2020/12/29 00:00:40;;;;;;;32.20;19.90;;;1.60;99.90;;;;;;6129545;23;20021;-84
2020/12/29 00:03:06;;;;;;;30.98;19.20;;;1.50;99.90;;;;;;6155943;23;20026;-84
2020/12/29 00:05:35;;;;;;;32.13;19.10;;;1.50;99.90;;;;;;6130229;23;20056;-84
2020/12/29 00:08:02;;;;;;;30.27;17.58;;;1.50;99.90;;;;;;6130085;23;20045;-84
2020/12/29 00:10:28;;;;;;;29.77;18.35;;;1.30;99.90;;;;;;6130372;23;20021;-84
2020/12/29 00:12:54;;;;;;;32.35;18.92;;;1.20;99.90;;;;;;6155930;23;20064;-84
2020/12/29 00:15:20;;;;;;;29.55;17.98;;;1.20;99.90;;;;;;6155930;23;20411;-84
2020/12/29 00:17:46;;;;;;;33.03;18.75;;;1.10;99.90;;;;;;6130215;23;20094;-84
2020/12/29 00:20:13;;;;;;;27.13;18.45;;;1.10;99.90;;;;;;6130102;23;20018;-84
2020/12/29 00:22:39;;;;;;;31.00;18.25;;;1.10;99.90;;;;;;6130190;23;20029;-84
2020/12/29 00:25:05;;;;;;;32.10;18.48;;;1.10;99.90;;;;;;6130414;23;20057;-84
2020/12/29 00:27:32;;;;;;;32.22;18.75;;;1.00;99.90;;;;;;6129950;23;20021;-84
2020/12/29 00:29:58;;;;;;;23.70;15.80;;;0.90;99.90;;;;;;6130101;23;20080;-84
2020/12/29 00:32:24;;;;;;;19.70;13.02;;;0.80;99.90;;;;;;6156163;23;20067;-83
2020/12/29 00:34:50;;;;;;;19.75;13.55;;;0.70;99.90;;;;;;6131669;23;20087;-85
2020/12/29 00:37:17;;;;;;;24.23;15.27;;;0.50;99.90;;;;;;6158016;23;20101;-84
2020/12/29 00:39:43;;;;;;;26.33;14.85;;;0.60;99.90;;;;;;6132099;23;20064;-85
2020/12/29 00:42:10;;;;;;;21.80;14.57;;;0.40;99.90;;;;;;6131955;23;20028;-84
2020/12/29 00:44:37;;;;;;;24.50;15.27;;;0.30;99.90;;;;;;6131480;23;20028;-84
2020/12/29 00:47:03;;;;;;;23.38;15.02;;;0.30;99.90;;;;;;6158271;23;20021;-84
2020/12/29 00:49:30;;;;;;;27.20;15.48;;;0.40;99.90;;;;;;6157873;23;20160;-84
2020/12/29 00:51:57;;;;;;;33.83;17.67;;;0.40;99.90;;;;;;6157608;23;20396;-84
2020/12/29 00:54:23;;;;;;;39.97;20.50;;;0.30;99.90;;;;;;6164982;23;20025;-84
2020/12/29 00:56:49;;;;;;;47.47;22.27;;;0.50;99.90;;;;;;6137265;23;20037;-84
2020/12/29 00:59:15;;;;;;;36.40;19.45;;;0.50;99.90;;;;;;6163381;23;20068;-84
2020/12/29 01:01:42;;;;;;;40.35;20.90;;;0.60;99.90;;;;;;6163490;23;20025;-84
2020/12/29 01:04:08;;;;;;;43.72;22.02;;;0.70;99.90;;;;;;6162483;23;20040;-84
2020/12/29 01:06:34;;;;;;;44.20;21.65;;;0.70;99.90;;;;;;6162118;23;20052;-84
2020/12/29 01:09:00;;;;;;;40.75;20.50;;;0.80;99.90;;;;;;6161643;23;20029;-85
2020/12/29 01:11:32;;;;;;;37.67;21.23;;;0.80;99.90;;;;;;6135785;23;20076;-84
2020/12/29 01:13:58;;;;;;;37.45;20.58;;;1.00;99.90;;;;;;6161598;23;20055;-84
2020/12/29 01:16:25;;;;;;;37.42;21.23;;;1.10;99.90;;;;;;6134607;23;20025;-84
2020/12/29 01:18:51;;;;;;;48.28;23.70;;;1.10;99.90;;;;;;6134382;23;20013;-83
2020/12/29 01:21:17;;;;;;;48.60;23.13;;;1.00;99.90;;;;;;6135049;23;20114;-83
2020/12/29 01:23:43;;;;;;;39.35;21.98;;;1.00;99.90;;;;;;6161860;23;20021;-84
2020/12/29 01:26:10;;;;;;;34.72;20.77;;;1.00;99.90;;;;;;6161038;23;20056;-84
2020/12/29 01:28:39;;;;;;;42.58;21.55;;;1.00;99.90;;;;;;6133850;23;20033;-84
2020/12/29 01:31:05;;;;;;;34.28;20.52;;;1.00;99.90;;;;;;6135035;23;20021;-84
2020/12/29 01:33:31;;;;;;;35.88;21.15;;;1.20;99.90;;;;;;6133876;23;20464;-84
2020/12/29 01:35:58;;;;;;;39.40;21.58;;;1.10;99.90;;;;;;6133969;23;20109;-83
2020/12/29 01:38:24;;;;;;;38.15;21.75;;;1.10;99.90;;;;;;6133133;23;20028;-84
2020/12/29 01:40:57;;;;;;;32.15;19.55;;;1.00;99.90;;;;;;6157395;23;20465;-82
2020/12/29 01:43:27;;;;;;;32.70;19.05;;;1.00;99.90;;;;;;6131334;23;20021;-83
2020/12/29 01:45:54;;;;;;;34.60;20.00;;;1.00;99.90;;;;;;6131561;23;20024;-83
2020/12/29 01:48:20;;;;;;;29.70;18.80;;;1.00;99.90;;;;;;6157323;23;20028;-83
2020/12/29 01:50:46;;;;;;;38.65;20.55;;;0.90;99.90;;;;;;6131210;23;20045;-83
2020/12/29 01:53:12;;;;;;;35.53;19.77;;;0.80;99.90;;;;;;6131446;23;20353;-82
2020/12/29 01:55:38;;;;;;;29.90;19.17;;;0.70;99.90;;;;;;6157139;23;20013;-83
2020/12/29 01:58:05;;;;;;;34.28;20.02;;;0.70;99.90;;;;;;6131054;23;20033;-83
2020/12/29 02:00:31;;;;;;;33.63;20.15;;;0.60;99.90;;;;;;6131131;23;20104;-83
2020/12/29 02:02:58;;;;;;;38.00;20.27;;;0.60;99.90;;;;;;6131635;23;20096;-83
2020/12/29 02:05:28;;;;;;;28.15;17.38;;;0.50;99.90;;;;;;6131491;23;20097;-83
2020/12/29 02:07:54;;;;;;;27.92;17.08;;;0.50;99.90;;;;;;6131398;23;20100;-83
2020/12/29 02:10:21;;;;;;;28.23;17.67;;;0.40;99.90;;;;;;6157552;23;20037;-83
2020/12/29 02:12:47;;;;;;;33.70;18.02;;;0.30;99.90;;;;;;6131194;23;20022;-83
2020/12/29 02:15:14;;;;;;;28.77;18.10;;;0.20;99.90;;;;;;6157321;23;20049;-83
2020/12/29 02:17:40;;;;;;;28.27;16.30;;;0.10;99.90;;;;;;6157502;23;20033;-83
2020/12/29 02:20:07;;;;;;;33.97;19.52;;;0.20;99.90;;;;;;6131598;23;20092;-83
2020/12/29 02:22:33;;;;;;;38.15;21.15;;;0.10;99.90;;;;;;6131656;23;20113;-83
2020/12/29 02:25:03;;;;;;;40.55;22.70;;;0.10;99.90;;;;;;6157492;23;20021;-83
2020/12/29 02:27:32;;;;;;;48.72;24.13;;;0.30;99.90;;;;;;6157345;23;20029;-83
2020/12/29 02:29:59;;;;;;;52.00;24.90;;;0.50;99.90;;;;;;6131142;23;20404;-83
2020/12/29 02:32:26;;;;;;;44.97;24.13;;;0.60;99.90;;;;;;6131493;23;20026;-83
2020/12/29 02:34:53;;;;;;;34.97;21.35;;;0.70;99.90;;;;;;6131655;23;20028;-83
2020/12/29 02:37:20;;;;;;;35.47;20.75;;;0.70;99.90;;;;;;6157594;23;20025;-84
2020/12/29 02:39:51;;;;;;;39.20;22.92;;;0.70;99.90;;;;;;6130692;23;20056;-82
2020/12/29 02:42:17;;;;;;;37.42;22.15;;;0.50;99.90;;;;;;6136945;23;20017;-84
2020/12/29 02:44:44;;;;;;;30.70;18.83;;;0.50;99.90;;;;;;6142291;23;20072;-84
2020/12/29 02:47:10;;;;;;;31.92;18.92;;;0.40;99.90;;;;;;6139502;23;20100;-84
2020/12/29 02:49:37;;;;;;;39.75;21.77;;;0.50;99.90;;;;;;6140684;23;20460;-84
2020/12/29 02:52:04;;;;;;;31.95;19.90;;;0.40;99.90;;;;;;6163809;23;20028;-84
2020/12/29 02:54:31;;;;;;;38.15;20.45;;;0.50;99.90;;;;;;6163862;23;20025;-84
2020/12/29 02:56:57;;;;;;;42.75;24.33;;;0.60;99.90;;;;;;6136347;23;20025;-84
2020/12/29 02:59:24;;;;;;;45.65;24.00;;;0.60;99.90;;;;;;6136567;23;20472;-84
2020/12/29 03:01:51;;;;;;;51.88;25.88;;;0.50;99.90;;;;;;6137322;23;20026;-84
2020/12/29 03:04:18;;;;;;;44.55;24.08;;;0.50;99.90;;;;;;6136828;23;20028;-84
2020/12/29 03:06:45;;;;;;;45.65;23.25;;;0.50;99.90;;;;;;6136875;23;20033;-84
2020/12/29 03:09:12;;;;;;;52.88;27.48;;;0.70;99.90;;;;;;6135881;23;20468;-84
2020/12/29 03:11:39;;;;;;;41.72;24.60;;;0.80;99.90;;;;;;6134502;23;20025;-84
2020/12/29 03:14:07;;;;;;;43.22;24.55;;;0.80;99.90;;;;;;6159897;23;20129;-84
2020/12/29 03:16:33;;;;;;;45.53;24.58;;;0.90;99.90;;;;;;6135084;23;20049;-84
2020/12/29 03:19:18;;;;;;;57.92;27.10;;;1.00;99.90;;;;;;6138510;23;20021;-84
2020/12/29 03:21:44;;;;;;;39.78;24.35;;;0.90;99.90;;;;;;6134266;23;20142;-84
2020/12/29 03:24:12;;;;;;;49.75;26.08;;;1.00;99.90;;;;;;6134454;23;20408;-84
2020/12/29 03:26:38;;;;;;;53.38;26.92;;;1.00;99.90;;;;;;6133743;23;20095;-84
2020/12/29 03:29:04;;;;;;;47.58;27.08;;;1.00;99.90;;;;;;6133701;23;20460;-84
2020/12/29 03:31:31;;;;;;;48.35;27.33;;;1.00;99.90;;;;;;6131667;23;20029;-83
2020/12/29 03:33:57;;;;;;;40.67;23.63;;;0.90;99.90;;;;;;6130371;23;20074;-82
2020/12/29 03:36:23;;;;;;;36.63;22.70;;;0.90;99.90;;;;;;6130497;23;20048;-83
2020/12/29 03:38:49;;;;;;;34.13;20.77;;;0.90;99.90;;;;;;6156459;23;20072;-83
2020/12/29 03:41:16;;;;;;;30.73;19.30;;;0.90;99.90;;;;;;6156280;23;20021;-83
2020/12/29 03:43:42;;;;;;;31.30;20.00;;;0.80;99.90;;;;;;6156553;23;20059;-82
2020/12/29 03:46:09;;;;;;;33.90;20.30;;;0.70;99.90;;;;;;6130264;23;20061;-83
2020/12/29 03:48:35;;;;;;;40.70;22.30;;;0.60;99.90;;;;;;6130491;23;20057;-83
2020/12/29 03:51:01;;;;;;;34.58;20.88;;;0.60;99.90;;;;;;6130171;23;20070;-82
2020/12/29 03:53:27;;;;;;;34.65;19.30;;;0.60;99.90;;;;;;6130109;23;20029;-83
2020/12/29 03:55:54;;;;;;;34.75;20.67;;;0.50;99.90;;;;;;6130635;23;20469;-83
2020/12/29 03:58:20;;;;;;;35.30;20.10;;;0.50;99.90;;;;;;6130589;23;20017;-83
2020/12/29 04:00:46;;;;;;;31.58;19.38;;;0.30;99.90;;;;;;6155860;23;20023;-82
2020/12/29 04:03:12;;;;;;;33.13;20.15;;;0.30;99.90;;;;;;6130550;23;20018;-83
2020/12/29 04:05:38;;;;;;;35.50;20.20;;;0.40;99.90;;;;;;6155900;23;20093;-83
2020/12/29 04:08:05;;;;;;;36.35;21.13;;;0.40;99.90;;;;;;6130408;23;20040;-83
2020/12/29 04:10:31;;;;;;;40.97;22.45;;;0.40;99.90;;;;;;6156088;23;20030;-84
2020/12/29 04:12:58;;;;;;;43.03;24.15;;;0.40;99.90;;;;;;6130704;23;20025;-83
2020/12/29 04:15:24;;;;;;;43.45;23.17;;;0.40;99.90;;;;;;6156574;23;20022;-83
2020/12/29 04:17:50;;;;;;;42.55;24.05;;;0.50;99.90;;;;;;6156466;23;20029;-83
2020/12/29 04:20:18;;;;;;;46.05;24.10;;;0.60;99.90;;;;;;6130827;23;20021;-83
2020/12/29 04:22:44;;;;;;;45.05;23.33;;;0.60;99.90;;;;;;6130357;23;20021;-83
2020/12/29 04:25:10;;;;;;;36.78;20.95;;;0.60;99.90;;;;;;6156357;23;20097;-83
2020/12/29 04:27:40;;;;;;;35.58;21.38;;;0.70;99.90;;;;;;6130485;23;20053;-83
2020/12/29 04:30:08;;;;;;;37.05;20.50;;;0.80;99.90;;;;;;6130780;23;20021;-83
2020/12/29 04:32:35;;;;;;;43.28;23.52;;;0.80;99.90;;;;;;6141560;23;20049;-84
2020/12/29 04:35:01;;;;;;;38.13;21.45;;;0.70;99.90;;;;;;6164051;23;20029;-84
2020/12/29 04:37:28;;;;;;;30.25;19.50;;;0.80;99.90;;;;;;6137407;23;20089;-84
2020/12/29 04:39:55;;;;;;;39.40;20.77;;;0.80;99.90;;;;;;6136832;23;20018;-84
2020/12/29 04:42:23;;;;;;;32.60;19.27;;;0.80;99.90;;;;;;6136598;23;20025;-84
2020/12/29 04:44:51;;;;;;;38.88;21.52;;;0.80;99.90;;;;;;6164564;23;20028;-84
2020/12/29 04:47:18;;;;;;;36.22;19.70;;;0.90;99.90;;;;;;6137344;23;20017;-84
2020/12/29 04:49:45;;;;;;;37.13;21.50;;;0.90;99.90;;;;;;6163792;23;20032;-84
2020/12/29 04:52:12;;;;;;;33.35;19.33;;;0.90;99.90;;;;;;6162869;23;20026;-83
2020/12/29 04:54:40;;;;;;;37.72;20.70;;;0.80;99.90;;;;;;6135791;23;20044;-84
2020/12/29 04:57:09;;;;;;;33.58;18.77;;;0.80;99.90;;;;;;6161849;23;20026;-84
2020/12/29 04:59:36;;;;;;;33.38;19.58;;;1.00;99.90;;;;;;6134491;23;20057;-84
2020/12/29 05:02:03;;;;;;;33.55;20.65;;;1.00;99.90;;;;;;6134053;23;20077;-84
2020/12/29 05:04:29;;;;;;;29.33;18.33;;;0.90;99.90;;;;;;6132944;23;20059;-84
2020/12/29 05:06:56;;;;;;;33.13;18.63;;;0.90;99.90;;;;;;6133787;23;20018;-84
2020/12/29 05:09:24;;;;;;;33.60;19.40;;;0.90;99.90;;;;;;6158827;23;20057;-84
2020/12/29 05:11:51;;;;;;;27.83;17.20;;;0.90;99.90;;;;;;6132192;23;20543;-84
2020/12/29 05:14:21;;;;;;;31.50;18.50;;;1.00;99.90;;;;;;6133515;23;20408;-84
2020/12/29 05:16:49;;;;;;;29.92;17.40;;;1.00;99.90;;;;;;6132172;23;20531;-83
2020/12/29 05:19:19;;;;;;;26.02;15.60;;;0.90;99.90;;;;;;6132501;23;20043;-84
2020/12/29 05:21:46;;;;;;;24.33;15.07;;;1.00;99.90;;;;;;6132137;23;20057;-84
2020/12/29 05:24:18;;;;;;;29.35;15.73;;;1.10;99.90;;;;;;6155628;23;20018;-83
2020/12/29 05:26:50;;;;;;;22.02;13.98;;;1.10;99.90;;;;;;6129372;23;20483;-83
2020/12/29 05:29:17;;;;;;;17.85;12.43;;;1.10;99.90;;;;;;6130156;23;20022;-83
2020/12/29 05:31:45;;;;;;;17.77;12.38;;;1.20;99.90;;;;;;6129396;23;20516;-83
2020/12/29 05:34:25;;;;;;;18.30;13.30;;;1.20;99.90;;;;;;6155790;23;20064;-83
2020/12/29 05:36:53;;;;;;;17.73;12.63;;;1.40;99.90;;;;;;6129708;23;20064;-83
2020/12/29 05:39:22;;;;;;;16.45;11.45;;;1.50;99.90;;;;;;6155331;23;20060;-83
2020/12/29 05:41:50;;;;;;;15.77;12.77;;;1.60;99.90;;;;;;6130331;23;20018;-83
2020/12/29 05:44:26;;;;;;;19.38;12.95;;;1.70;99.90;;;;;;6156512;23;20053;-83
2020/12/29 05:47:04;;;;;;;16.85;11.45;;;1.80;99.90;;;;;;6130310;23;20464;-83
2020/12/29 05:49:33;;;;;;;17.00;11.65;;;1.80;99.90;;;;;;6130268;23;20022;-83
2020/12/29 05:52:00;;;;;;;13.95;11.50;;;1.90;99.90;;;;;;6156325;23;20026;-83
2020/12/29 05:54:27;;;;;;;12.35;10.10;;;1.90;99.90;;;;;;6155953;23;20076;-83
2020/12/29 05:56:54;;;;;;;14.75;11.98;;;1.90;99.90;;;;;;6130547;23;20064;-84
2020/12/29 05:59:21;;;;;;;15.02;11.75;;;1.90;99.90;;;;;;6130466;23;20057;-84
2020/12/29 06:01:50;;;;;;;16.67;11.73;;;2.00;99.90;;;;;;6130583;23;20033;-84
2020/12/29 06:04:18;;;;;;;11.18;9.65;;;1.90;99.90;;;;;;6159808;23;20098;-84
2020/12/29 06:06:46;;;;;;;18.10;11.07;;;2.00;99.90;;;;;;6134567;23;20457;-84
2020/12/29 06:09:14;;;;;;;14.48;10.35;;;1.90;99.90;;;;;;6134853;23;20032;-84
2020/12/29 06:11:49;;;;;;;14.20;10.88;;;1.90;99.90;;;;;;6160532;23;20061;-84
2020/12/29 06:14:18;;;;;;;14.32;11.43;;;2.00;99.90;;;;;;6134598;23;20060;-85
2020/12/29 06:16:45;;;;;;;15.82;11.27;;;2.00;99.90;;;;;;6134784;23;20053;-84
2020/12/29 06:19:27;;;;;;;16.42;11.45;;;2.00;99.90;;;;;;6135005;23;20112;-84
2020/12/29 06:22:10;;;;;;;19.10;12.00;;;2.00;99.90;;;;;;6146141;23;20015;-81
2020/12/29 06:24:40;;;;;;;47.95;25.88;;;2.00;99.90;;;;;;6169899;23;20401;-85
2020/12/29 06:27:07;;;;;;;24.50;15.38;;;2.00;99.90;;;;;;6137629;23;20026;-84
2020/12/29 06:29:40;;;;;;;15.05;11.38;;;2.00;99.90;;;;;;6154926;23;20036;-83
2020/12/29 06:32:17;;;;;;;36.33;26.33;;;2.00;99.90;;;;;;6159825;23;20005;-83
2020/12/29 06:34:44;;;;;;;44.13;26.75;;;2.00;99.90;;;;;;6159598;23;20025;-83
2020/12/29 06:37:24;;;;;;;15.77;12.10;;;2.00;99.90;;;;;;6180539;23;20254;-85
2020/12/29 06:40:01;;;;;;;17.70;12.80;;;2.00;99.90;;;;;;6165780;23;20052;-85
2020/12/29 06:42:28;;;;;;;20.33;15.98;;;2.00;99.90;;;;;;6140010;23;20026;-85
2020/12/29 06:44:56;;;;;;;15.45;12.02;;;2.00;99.90;;;;;;6165156;23;20032;-85
2020/12/29 06:47:24;;;;;;;14.93;12.05;;;2.00;99.90;;;;;;6138731;23;20021;-85
2020/12/29 06:49:51;;;;;;;12.10;10.13;;;2.10;99.90;;;;;;6139642;23;20025;-85
2020/12/29 06:52:28;;;;;;;13.18;10.63;;;2.10;99.90;;;;;;6138971;23;20025;-85
2020/12/29 06:54:57;;;;;;;9.68;8.73;;;2.10;99.90;;;;;;6163967;23;20486;-85
2020/12/29 06:57:35;;;;;;;10.07;9.05;;;2.20;99.90;;;;;;6138413;23;20056;-85
2020/12/29 07:00:24;;;;;;;12.05;9.52;;;2.30;99.90;;;;;;6138820;23;20341;-85
2020/12/29 07:02:53;;;;;;;8.75;7.85;;;2.30;99.90;;;;;;6129608;23;20472;-85
2020/12/29 07:05:25;;;;;;;12.35;8.93;;;2.30;99.90;;;;;;6139133;23;20049;-85
2020/12/29 07:08:11;;;;;;;12.65;11.05;;;2.30;99.90;;;;;;6138729;23;20052;-84
2020/12/29 07:10:45;;;;;;;12.02;10.05;;;2.20;99.90;;;;;;6164555;23;20096;-85
2020/12/29 07:13:13;;;;;;;;;;;2.10;99.90;;;;;;6164685;23;20500;-84
2020/12/29 07:15:53;;;;;;;12.00;10.18;;;2.10;99.90;;;;;;6134822;23;19916;-84
2020/12/29 07:18:24;;;;;;;9.85;8.75;;;2.00;99.90;;;;;;6158730;23;20527;-84
2020/12/29 07:20:53;;;;;;;14.40;9.65;;;2.00;99.90;;;;;;6133057;23;20352;-84
2020/12/29 07:23:20;;;;;;;11.45;8.90;;;1.90;99.90;;;;;;6133036;23;20028;-84
2020/12/29 07:25:49;;;;;;;13.13;10.52;;;1.80;99.90;;;;;;6162679;23;20498;-84
2020/12/29 07:28:19;;;;;;;23.45;11.00;;;2.00;99.90;;;;;;6137908;23;20048;-84
2020/12/29 07:30:45;;;;;;;13.38;8.82;;;1.90;99.90;;;;;;6162889;23;20522;-84
2020/12/29 07:33:11;;;;;;;13.77;9.55;;;1.90;99.90;;;;;;6162893;23;20030;-84
2020/12/29 07:35:39;;;;;;;16.95;12.48;;;2.00;99.90;;;;;;6162691;23;20475;-84
2020/12/29 07:38:26;;;;;;;21.88;14.48;;;1.90;99.90;;;;;;6136220;23;20025;-84
2020/12/29 07:40:53;;;;;;;21.90;15.57;;;1.90;99.90;;;;;;6136375;23;20118;-84
2020/12/29 07:43:20;;;;;;;31.88;21.10;;;2.00;99.90;;;;;;6162810;23;20028;-84
2020/12/29 07:45:46;;;;;;;22.20;16.08;;;2.10;99.90;;;;;;6162859;23;20044;-84
2020/12/29 07:48:12;;;;;;;18.90;12.55;;;2.20;99.90;;;;;;6163221;23;20084;-85
2020/12/29 07:50:40;;;;;;;17.25;12.52;;;2.20;99.90;;;;;;6136216;23;20083;-84
2020/12/29 07:53:08;;;;;;;17.98;12.65;;;2.20;99.90;;;;;;6136056;23;20022;-85
2020/12/29 07:55:35;;;;;;;17.70;12.95;;;2.20;99.90;;;;;;6162013;23;20045;-85
2020/12/29 07:58:03;;;;;;;18.17;13.10;;;2.30;99.90;;;;;;6136725;23;20091;-84
2020/12/29 08:00:31;;;;;;;22.60;14.55;;;2.20;99.90;;;;;;6162335;23;20018;-85
2020/12/29 08:02:58;;;;;;;19.10;15.90;;;2.10;99.90;;;;;;6135744;23;20021;-85
2020/12/29 08:05:29;;;;;;;22.48;15.18;;;2.20;99.90;;;;;;6136209;23;20397;-84
2020/12/29 08:08:00;;;;;;;15.27;11.52;;;2.30;99.90;;;;;;6136857;23;20021;-84
2020/12/29 08:10:31;;;;;;;13.88;10.50;;;2.30;99.90;;;;;;6136243;23;20021;-84
2020/12/29 08:13:03;;;;;;;20.92;14.93;;;2.30;99.90;;;;;;6161856;23;20031;-85
2020/12/29 08:15:31;;;;;;;19.05;12.27;;;2.20;99.90;;;;;;6137602;23;20026;-85
2020/12/29 08:18:13;;;;;;;12.75;10.40;;;2.20;99.90;;;;;;6138068;23;20032;-85
2020/12/29 08:20:51;;;;;;;14.98;11.32;;;2.30;99.90;;;;;;6137433;23;20018;-85
2020/12/29 08:23:19;;;;;;;16.35;9.55;;;2.40;99.90;;;;;;6162601;23;20531;-85
2020/12/29 08:25:51;;;;;;;11.50;9.32;;;2.40;99.90;;;;;;6136574;23;20021;-84
2020/12/29 08:28:18;;;;;;;12.68;10.68;;;2.40;99.90;;;;;;6162307;23;20041;-85
2020/12/29 08:30:44;;;;;;;16.48;11.15;;;2.40;99.90;;;;;;6161750;23;20491;-85
2020/12/29 08:33:14;;;;;;;21.30;15.30;;;2.40;99.90;;;;;;6135423;23;20057;-85
2020/12/29 08:35:47;;;;;;;17.67;12.20;;;2.50;99.90;;;;;;6135272;23;20056;-84
2020/12/29 08:38:38;;;;;;;10.73;8.90;;;2.60;99.90;;;;;;6135446;23;20484;-85
2020/12/29 08:41:04;;;;;;;10.73;8.48;;;2.60;99.90;;;;;;6161026;23;20055;-84
2020/12/29 08:43:34;;;;;;;12.30;9.52;;;2.70;99.90;;;;;;6160085;23;20100;-84
2020/12/29 08:46:05;;;;;;;8.50;6.47;;;2.80;99.90;;;;;;6134523;23;20021;-84
2020/12/29 08:48:32;;;;;;;8.35;6.57;;;2.70;99.90;;;;;;6134341;23;20021;-85
2020/12/29 08:50:58;;;;;;;7.30;6.32;;;2.80;99.90;;;;;;6134878;23;20049;-84
2020/12/29 08:53:26;;;;;;;7.60;5.30;;;3.00;99.90;;;;;;6134228;23;20037;-84
2020/12/29 08:55:53;;;;;;;6.70;5.75;;;2.90;99.90;;;;;;6160318;23;20465;-84
2020/12/29 08:58:26;;;;;;;6.38;5.07;;;2.80;99.90;;;;;;6160528;23;20025;-84
2020/12/29 09:01:02;;;;;;;9.53;5.97;;;2.90;99.90;;;;;;6135933;23;20037;-84
2020/12/29 09:03:30;;;;;;;3.25;2.95;;;3.00;99.90;;;;;;6160110;23;20045;-84
2020/12/29 09:05:59;;;;;;;1.70;1.60;;;2.90;99.90;;;;;;6160379;23;20017;-84
2020/12/29 09:08:30;;;;;;;1.98;1.40;;;2.90;99.90;;;;;;6132502;23;20045;-84
2020/12/29 09:11:16;;;;;;;0.90;0.90;;;3.00;99.90;;;;;;6156434;23;20334;-84
2020/12/29 09:14:02;;;;;;;2.63;1.77;;;3.00;99.90;;;;;;6130222;23;20084;-84
2020/12/29 09:16:29;;;;;;;2.80;2.47;;;3.10;99.90;;;;;;6130625;23;20026;-84
2020/12/29 09:18:55;;;;;;;1.58;1.48;;;3.20;99.90;;;;;;6130932;23;20022;-84
2020/12/29 09:21:23;;;;;;;2.75;2.55;;;3.20;99.90;;;;;;6130811;23;20364;-85
2020/12/29 09:24:03;;;;;;;9.15;4.82;;;3.10;99.90;;;;;;6157413;23;20045;-84
2020/12/29 09:26:30;;;;;;;9.90;5.22;;;3.10;99.90;;;;;;6157350;23;20029;-84
2020/12/29 09:28:57;;;;;;;5.03;2.88;;;3.10;99.90;;;;;;6131562;23;20057;-84
2020/12/29 09:31:29;;;;;;;3.65;2.58;;;3.10;99.90;;;;;;6131749;23;20414;-84
2020/12/29 09:34:05;;;;;;;0.50;0.50;;;3.10;99.90;;;;;;6134076;23;20476;-85
2020/12/29 09:36:31;;;;;;;0.82;0.57;;;3.20;99.90;;;;;;6157462;23;20029;-85
2020/12/29 09:38:57;;;;;;;1.65;1.55;;;3.20;99.90;;;;;;6131604;23;20017;-84
2020/12/29 09:41:24;;;;;;;0.88;0.88;;;3.30;99.90;;;;;;6134532;23;20021;-85
2020/12/29 09:43:50;;;;;;;0.75;0.75;;;3.30;99.90;;;;;;6163128;23;20073;-85
2020/12/29 09:46:16;;;;;;;2.53;2.35;;;3.30;99.90;;;;;;6136830;23;20025;-84
2020/12/29 09:48:43;;;;;;;3.92;3.50;;;3.30;99.90;;;;;;6135322;23;20037;-86
2020/12/29 09:51:11;;;;;;;6.75;6.20;;;3.20;99.90;;;;;;6135557;23;20080;-85
2020/12/29 09:53:38;;;;;;;0.40;0.40;;;3.20;99.90;;;;;;6161417;23;20032;-85
2020/12/29 09:56:04;;;;;;;0.40;0.40;;;3.30;99.90;;;;;;6135774;23;20083;-85
2020/12/29 09:58:31;;;;;;;0.40;0.38;;;3.30;99.90;;;;;;6136283;23;20032;-86
2020/12/29 10:00:57;;;;;;;0.60;0.60;;;3.30;99.90;;;;;;6135666;23;20034;-85
2020/12/29 10:03:25;;;;;;;0.30;0.30;;;3.20;99.90;;;;;;6162354;23;20022;-85
2020/12/29 10:05:51;;;;;;;0.63;0.30;;;3.20;99.90;;;;;;6162185;23;20025;-85
2020/12/29 10:08:17;;;;;;;0.40;0.40;;;3.20;99.90;;;;;;6140361;23;20444;-86
2020/12/29 10:10:43;;;;;;;0.50;0.50;;;3.10;99.90;;;;;;6164475;23;20037;-85
2020/12/29 10:13:10;;;;;;;0.45;0.45;;;3.20;99.90;;;;;;6138511;23;20053;-85
2020/12/29 10:15:36;;;;;;;0.35;0.35;;;3.20;99.90;;;;;;6164144;23;20017;-84
2020/12/29 10:18:02;;;;;;;0.40;0.40;;;3.30;99.90;;;;;;6138346;23;20053;-85
2020/12/29 10:20:28;;;;;;;0.55;0.52;;;3.40;99.90;;;;;;6137434;23;20017;-85
2020/12/29 10:22:55;;;;;;;0.45;0.45;;;3.50;99.90;;;;;;6137337;23;20021;-85
2020/12/29 10:25:21;;;;;;;1.63;1.52;;;3.50;99.90;;;;;;6137309;23;20049;-85
2020/12/29 10:27:47;;;;;;;3.25;3.05;;;3.60;99.90;;;;;;6137075;23;20022;-85
2020/12/29 10:30:14;;;;;;;1.02;0.90;;;3.80;99.90;;;;;;6162781;23;20028;-84
2020/12/29 10:32:41;;;;;;;0.40;0.40;;;3.90;99.90;;;;;;6136397;23;20468;-85
2020/12/29 10:35:08;;;;;;;4.40;3.22;;;3.80;99.90;;;;;;6162409;23;20060;-86
2020/12/29 10:37:34;;;;;;;0.90;0.90;;;3.90;99.90;;;;;;6135844;23;20076;-86
2020/12/29 10:40:00;;;;;;;3.15;2.40;;;3.90;99.90;;;;;;6135925;23;20022;-86
2020/12/29 10:42:27;;;;;;;0.40;0.40;;;3.80;99.90;;;;;;6136939;23;20029;-85
2020/12/29 10:44:53;;;;;;;0.80;0.50;;;3.70;99.90;;;;;;6161526;23;20381;-86
2020/12/29 10:47:19;;;;;;;2.40;2.20;;;3.70;99.90;;;;;;6161849;23;20384;-85
2020/12/29 10:49:45;;;;;;;0.60;0.60;;;3.70;99.90;;;;;;6134941;23;20087;-86
2020/12/29 10:52:11;;;;;;;0.40;0.40;;;3.80;99.90;;;;;;6160592;23;20053;-85
2020/12/29 10:54:38;;;;;;;0.60;0.60;;;3.90;99.90;;;;;;6135742;23;20097;-86
2020/12/29 10:57:04;;;;;;;0.40;0.40;;;4.00;99.90;;;;;;6135238;23;20060;-86
2020/12/29 10:59:30;;;;;;;0.20;0.20;;;4.00;99.90;;;;;;6135047;23;20018;-85
2020/12/29 11:01:56;;;;;;;0.20;0.20;;;3.80;99.90;;;;;;6131727;23;20014;-87
2020/12/29 11:04:23;;;;;;;0.30;0.30;;;3.60;99.90;;;;;;6132848;23;20037;-87
2020/12/29 11:06:50;;;;;;;0.30;0.30;;;3.50;99.90;;;;;;6159616;23;20449;-86
2020/12/29 11:09:17;;;;;;;0.25;0.25;;;3.30;99.90;;;;;;6132408;23;20022;-85
2020/12/29 11:11:43;;;;;;;0.40;0.40;;;3.20;99.90;;;;;;6133370;23;20092;-86
2020/12/29 11:14:10;;;;;;;0.30;0.30;;;3.20;99.90;;;;;;6133768;23;20028;-86
2020/12/29 11:16:36;;;;;;;0.20;0.20;;;3.20;99.90;;;;;;6157758;23;20452;-86
2020/12/29 11:19:02;;;;;;;0.40;0.20;;;3.10;99.90;;;;;;6132938;23;20088;-85
2020/12/29 11:21:28;;;;;;;0.45;0.45;;;3.10;99.90;;;;;;6132542;23;20092;-85
2020/12/29 11:23:55;;;;;;;0.80;0.80;;;3.10;99.90;;;;;;6133633;23;20491;-86
2020/12/29 11:26:21;;;;;;;0.40;0.40;;;3.10;99.90;;;;;;6133100;23;20022;-85
2020/12/29 11:28:48;;;;;;;0.30;0.30;;;3.10;99.90;;;;;;6134040;23;20388;-85
2020/12/29 11:31:16;;;;;;;0.95;0.95;;;3.10;99.90;;;;;;6132903;23;20025;-85
2020/12/29 11:33:42;;;;;;;0.40;0.40;;;3.20;99.90;;;;;;6133228;23;20102;-85
2020/12/29 11:36:09;;;;;;;0.38;0.30;;;3.30;99.90;;;;;;6133970;23;20083;-86
2020/12/29 11:38:36;;;;;;;0.30;0.30;;;3.40;99.90;;;;;;6133993;23;20060;-85
2020/12/29 11:41:03;;;;;;;0.40;0.40;;;3.60;99.90;;;;;;6159403;23;20096;-85
2020/12/29 11:43:30;;;;;;;0.25;0.25;;;3.60;99.90;;;;;;6134422;23;20022;-85
2020/12/29 11:45:56;;;;;;;0.38;0.38;;;3.70;99.90;;;;;;6159744;23;20022;-85
2020/12/29 11:48:22;;;;;;;0.65;0.50;;;3.80;99.90;;;;;;6133450;23;20017;-85
2020/12/29 11:50:51;;;;;;;0.45;0.45;;;3.80;99.90;;;;;;6159104;23;20551;-85
2020/12/29 11:53:18;;;;;;;0.20;0.20;;;3.70;99.90;;;;;;6159367;23;20409;-85
2020/12/29 11:55:44;;;;;;;0.20;0.20;;;3.60;99.90;;;;;;6159749;23;20361;-86
2020/12/29 11:58:10;;;;;;;0.30;0.30;;;3.60;99.90;;;;;;6137773;23;20471;-85
2020/12/29 12:00:37;;;;;;;0.20;0.20;;;3.50;99.90;;;;;;6137984;23;20024;-86
2020/12/29 12:03:07;;;;;;;0.20;0.20;;;3.50;99.90;;;;;;6140234;23;20017;-85
2020/12/29 12:05:33;;;;;;;0.20;0.20;;;3.60;99.90;;;;;;6164139;23;20044;-85
2020/12/29 12:07:59;;;;;;;0.40;0.40;;;3.60;99.90;;;;;;6138158;23;20022;-85
2020/12/29 12:10:26;;;;;;;0.30;0.30;;;3.60;99.90;;;;;;6162988;23;20057;-86
2020/12/29 12:12:52;;;;;;;0.30;0.30;;;3.50;99.90;;;;;;6136084;23;20076;-86
2020/12/29 12:15:18;;;;;;;0.40;0.40;;;3.40;99.90;;;;;;6160878;23;20025;-86
2020/12/29 12:17:45;;;;;;;1.00;0.70;;;3.30;99.90;;;;;;6135670;23;20476;-86
2020/12/29 12:20:11;;;;;;;0.38;0.30;;;3.20;99.90;;;;;;6135404;23;20352;-86
2020/12/29 12:22:37;;;;;;;0.80;0.80;;;3.30;99.90;;;;;;6134702;23;20069;-85
2020/12/29 12:25:04;;;;;;;0.40;0.40;;;3.20;99.90;;;;;;6160567;23;20472;-85
2020/12/29 12:27:30;;;;;;;0.30;0.30;;;3.20;99.90;;;;;;6134215;23;20088;-85
2020/12/29 12:29:56;;;;;;;0.93;0.35;;;3.30;99.90;;;;;;6135120;23;20021;-85
2020/12/29 12:32:23;;;;;;;1.20;0.88;;;3.30;99.90;;;;;;6160432;23;20357;-85
2020/12/29 12:34:49;;;;;;;0.30;0.30;;;3.40;99.90;;;;;;6134146;23;20472;-86
2020/12/29 12:37:16;;;;;;;0.30;0.30;;;3.40;99.90;;;;;;6134063;23;20475;-86
2020/12/29 12:39:42;;;;;;;1.00;0.60;;;3.40;99.90;;;;;;6134266;23;20017;-85
2020/12/29 12:42:10;;;;;;;0.20;0.20;;;3.50;99.90;;;;;;6133250;23;20033;-85
2020/12/29 12:44:37;;;;;;;0.40;0.40;;;3.50;99.90;;;;;;6133752;23;20049;-85
2020/12/29 12:47:04;;;;;;;0.50;0.50;;;3.40;99.90;;;;;;6133633;23;20036;-86